Time;durP1;ratioP1;P1;durP2;ratioP2;P2;SDS_P1;SDS_P2;PMS_P1;PMS_P2;Temp;Humidity;BMP_temperature;BMP_pressure;BME280_temperature;BME280_humidity;BME280_pressure;Samples;Min_cycle;Max_cycle;Signal;HPM_P1;HPM_P2
2022/06/24 00:00:31;;;;;;;2.60;1.67;;;18.70;99.90;;;;;;5071681;28;20469;-71
2022/06/24 00:02:58;;;;;;;3.50;1.57;;;18.60;99.90;;;;;;5072449;28;20494;-71
2022/06/24 00:05:28;;;;;;;3.73;1.90;;;18.60;99.90;;;;;;5072013;28;20461;-71
2022/06/24 00:07:54;;;;;;;3.20;1.73;;;18.60;99.90;;;;;;5072346;28;20830;-71
2022/06/24 00:10:24;;;;;;;4.73;2.30;;;18.60;99.90;;;;;;5070564;28;20465;-71
2022/06/24 00:12:53;;;;;;;5.73;2.27;;;18.50;99.90;;;;;;5072154;28;20466;-71
2022/06/24 00:15:24;;;;;;;3.60;2.23;;;18.50;99.90;;;;;;5071745;28;20482;-71
2022/06/24 00:17:51;;;;;;;5.90;2.20;;;18.50;99.90;;;;;;5071987;28;20510;-71
2022/06/24 00:20:21;;;;;;;6.73;3.50;;;18.50;99.90;;;;;;5071050;28;20837;-71
2022/06/24 00:22:49;;;;;;;2.70;1.83;;;18.40;99.90;;;;;;5071899;28;20569;-71
2022/06/24 00:25:18;;;;;;;4.37;2.33;;;18.50;99.90;;;;;;5071841;28;20466;-71
2022/06/24 00:28:01;;;;;;;2.97;1.97;;;18.40;99.90;;;;;;5071680;28;21001;-71
2022/06/24 00:30:28;;;;;;;3.70;2.30;;;18.40;99.90;;;;;;5071104;28;20469;-71
2022/06/24 00:33:09;;;;;;;6.70;2.17;;;18.40;99.90;;;;;;5071813;28;20458;-71
2022/06/24 00:35:38;;;;;;;4.87;2.13;;;18.40;99.90;;;;;;5071539;28;20482;-71
2022/06/24 00:38:21;;;;;;;3.60;2.50;;;18.40;99.90;;;;;;5071588;28;20485;-71
2022/06/24 00:40:48;;;;;;;3.87;2.40;;;18.40;99.90;;;;;;5071339;28;20461;-71
2022/06/24 00:43:23;;;;;;;9.10;2.60;;;18.40;99.90;;;;;;5071479;28;20470;-71
2022/06/24 00:45:54;;;;;;;4.33;1.97;;;18.50;99.90;;;;;;5071945;28;20923;-71
2022/06/24 00:48:24;;;;;;;3.73;1.90;;;18.50;99.90;;;;;;5071247;28;20483;-71
2022/06/24 00:50:51;;;;;;;8.00;2.10;;;18.50;99.90;;;;;;5071310;28;20466;-71
2022/06/24 00:53:18;;;;;;;4.70;2.50;;;18.50;99.90;;;;;;5071380;28;20458;-71
2022/06/24 00:55:46;;;;;;;3.33;2.23;;;18.40;99.90;;;;;;5071159;28;21027;-71
2022/06/24 00:58:15;;;;;;;2.87;2.50;;;18.40;99.90;;;;;;5071160;28;20573;-71
2022/06/24 01:00:44;;;;;;;5.23;2.47;;;18.40;99.90;;;;;;5070799;28;20455;-71
2022/06/24 01:03:14;;;;;;;3.80;2.87;;;18.30;99.90;;;;;;5071176;28;20469;-71
2022/06/24 01:05:42;;;;;;;4.40;3.40;;;18.20;99.90;;;;;;5071196;28;20461;-71
2022/06/24 01:08:10;;;;;;;5.20;2.63;;;18.20;99.90;;;;;;5071012;28;20478;-71
2022/06/24 01:10:37;;;;;;;4.30;2.80;;;18.20;99.90;;;;;;5070469;28;20545;-71
2022/06/24 01:13:08;;;;;;;6.20;2.63;;;18.20;99.90;;;;;;5071031;28;20485;-71
2022/06/24 01:15:35;;;;;;;4.57;3.00;;;18.20;99.90;;;;;;5070897;28;20731;-71
2022/06/24 01:18:03;;;;;;;5.07;2.57;;;18.30;99.90;;;;;;5070926;28;20879;-71
2022/06/24 01:20:30;;;;;;;6.73;3.33;;;18.10;99.90;;;;;;5070004;28;20942;-71
2022/06/24 01:22:58;;;;;;;7.30;2.90;;;18.00;99.90;;;;;;5071056;28;20458;-70
2022/06/24 01:25:24;;;;;;;5.90;2.87;;;18.00;99.90;;;;;;5070637;28;20465;-71
2022/06/24 01:27:51;;;;;;;4.03;2.80;;;18.00;99.90;;;;;;5070957;28;20489;-71
2022/06/24 01:30:18;;;;;;;6.53;5.37;;;17.90;99.90;;;;;;5070300;28;20462;-71
2022/06/24 01:32:46;;;;;;;4.93;2.63;;;17.90;99.90;;;;;;5070835;28;20439;-70
2022/06/24 01:35:13;;;;;;;7.47;3.10;;;17.80;99.90;;;;;;5070751;28;20462;-71
2022/06/24 01:37:40;;;;;;;4.53;2.10;;;17.70;99.90;;;;;;5070487;28;20479;-71
2022/06/24 01:40:10;;;;;;;3.70;2.57;;;17.70;99.90;;;;;;5070236;28;20462;-71
2022/06/24 01:42:37;;;;;;;6.10;3.53;;;17.60;99.90;;;;;;5070477;28;20469;-71
2022/06/24 01:45:04;;;;;;;4.17;2.40;;;17.60;99.90;;;;;;5070732;28;20542;-71
2022/06/24 01:47:31;;;;;;;4.00;2.70;;;17.60;99.90;;;;;;5070368;28;20827;-70
2022/06/24 01:49:58;;;;;;;3.53;2.73;;;17.60;99.90;;;;;;5070243;28;20469;-71
2022/06/24 01:52:24;;;;;;;2.90;2.17;;;17.50;99.90;;;;;;5070411;28;20470;-71
2022/06/24 01:54:51;;;;;;;8.60;3.30;;;17.60;99.90;;;;;;5070535;28;20465;-70
2022/06/24 01:57:19;;;;;;;8.70;3.37;;;17.50;99.90;;;;;;5070233;28;20734;-71
2022/06/24 01:59:46;;;;;;;5.83;2.30;;;17.50;99.90;;;;;;5070049;28;20469;-71
2022/06/24 02:02:12;;;;;;;5.43;2.50;;;17.50;99.90;;;;;;5070392;28;20536;-71
2022/06/24 02:04:39;;;;;;;3.60;2.20;;;17.50;99.90;;;;;;5070569;28;20498;-71
2022/06/24 02:07:06;;;;;;;3.43;2.60;;;17.50;99.90;;;;;;5070339;28;20475;-71
2022/06/24 02:13:26;;;;;;;3.37;2.63;;;17.50;99.90;;;;;;5069837;28;20799;-70
2022/06/24 02:15:05;;;;;;;5.23;2.67;;;17.50;99.90;;;;;;5070659;28;20915;-70
2022/06/24 02:17:32;;;;;;;2.50;2.30;;;17.60;99.90;;;;;;5070012;28;20502;-70
2022/06/24 02:19:59;;;;;;;4.30;2.57;;;17.60;99.90;;;;;;5069961;28;20875;-70
2022/06/24 02:22:26;;;;;;;4.00;2.50;;;17.60;99.90;;;;;;5070134;28;20466;-70
2022/06/24 02:24:52;;;;;;;6.37;3.00;;;17.50;99.90;;;;;;5159124;22;20496;-75
2022/06/24 02:27:20;;;;;;;3.70;2.40;;;17.50;99.90;;;;;;5094369;28;20473;-75
2022/06/24 02:29:47;;;;;;;4.47;2.30;;;17.40;99.90;;;;;;5089854;28;20465;-74
2022/06/24 02:32:14;;;;;;;3.80;2.43;;;17.40;99.90;;;;;;5091137;28;20967;-75
2022/06/24 02:34:40;;;;;;;3.87;2.33;;;17.30;99.90;;;;;;5094097;28;20788;-74
2022/06/24 02:37:07;;;;;;;6.03;2.83;;;17.20;99.90;;;;;;5094084;28;20496;-74
2022/06/24 02:39:33;;;;;;;4.40;2.40;;;17.20;99.90;;;;;;5093528;28;20468;-75
2022/06/24 02:42:00;;;;;;;3.43;2.63;;;17.20;99.90;;;;;;5094207;28;20495;-74
2022/06/24 02:44:28;;;;;;;6.10;2.70;;;17.10;99.90;;;;;;5094013;28;20468;-75
2022/06/24 02:46:55;;;;;;;5.73;3.03;;;17.10;99.90;;;;;;5093788;28;20477;-74
2022/06/24 02:49:21;;;;;;;3.70;2.80;;;17.10;99.90;;;;;;5093365;28;20979;-75
2022/06/24 02:51:48;;;;;;;6.07;2.50;;;17.00;99.90;;;;;;5094050;28;20461;-74
2022/06/24 02:54:15;;;;;;;5.10;2.57;;;17.00;99.90;;;;;;5093878;28;20457;-74
2022/06/24 02:56:41;;;;;;;3.87;2.27;;;17.00;99.90;;;;;;5093754;28;20485;-74
2022/06/24 02:59:08;;;;;;;2.93;2.53;;;17.00;99.90;;;;;;5093383;28;20461;-75
2022/06/24 03:01:36;;;;;;;4.47;2.80;;;16.90;99.90;;;;;;5093474;28;20837;-75
2022/06/24 03:04:03;;;;;;;6.67;2.30;;;17.00;99.90;;;;;;5093716;28;20468;-74
2022/06/24 03:06:30;;;;;;;6.10;2.70;;;17.00;99.90;;;;;;5093584;28;20454;-74
2022/06/24 03:08:56;;;;;;;3.03;2.47;;;17.00;99.90;;;;;;5093361;28;20454;-74
2022/06/24 03:11:23;;;;;;;5.63;2.50;;;17.00;99.90;;;;;;5093129;28;20476;-75
2022/06/24 03:13:50;;;;;;;4.57;2.97;;;17.00;99.90;;;;;;5093639;28;20453;-75
2022/06/24 03:16:16;;;;;;;3.77;1.80;;;17.00;99.90;;;;;;5093412;28;20481;-75
2022/06/24 03:18:44;;;;;;;3.07;2.60;;;17.00;99.90;;;;;;5093153;28;20543;-74
2022/06/24 03:21:11;;;;;;;4.13;2.60;;;17.00;99.90;;;;;;5092934;28;20532;-74
2022/06/24 03:23:38;;;;;;;3.57;2.37;;;17.00;99.90;;;;;;5093077;28;20505;-75
2022/06/24 03:26:05;;;;;;;3.67;2.37;;;17.00;99.90;;;;;;5093497;28;20454;-74
2022/06/24 03:28:31;;;;;;;4.13;3.03;;;17.00;99.90;;;;;;5092980;28;20996;-74
2022/06/24 03:30:58;;;;;;;4.30;2.53;;;16.90;99.90;;;;;;5092709;28;20461;-74
2022/06/24 03:33:25;;;;;;;5.60;3.07;;;16.90;99.90;;;;;;5093007;28;20458;-75
2022/06/24 03:35:53;;;;;;;4.40;2.80;;;16.90;99.90;;;;;;5092846;28;20458;-74
2022/06/24 03:38:19;;;;;;;2.90;2.43;;;16.90;99.90;;;;;;5092850;28;20474;-75
2022/06/24 03:40:46;;;;;;;5.93;2.93;;;16.90;99.90;;;;;;5092320;28;20458;-74
2022/06/24 03:43:13;;;;;;;6.40;3.17;;;16.90;99.90;;;;;;5092765;28;20462;-74
2022/06/24 03:45:39;;;;;;;4.77;2.80;;;16.90;99.90;;;;;;5092686;28;20803;-74
2022/06/24 03:48:06;;;;;;;4.77;2.60;;;16.80;99.90;;;;;;5092746;28;20476;-74
2022/06/24 03:50:33;;;;;;;4.87;2.67;;;16.90;99.90;;;;;;5092202;28;20466;-74
2022/06/24 03:53:01;;;;;;;8.17;2.87;;;16.80;99.90;;;;;;5092752;28;20464;-74
2022/06/24 03:55:28;;;;;;;3.37;2.77;;;16.80;99.90;;;;;;5092652;28;20465;-75
2022/06/24 03:57:54;;;;;;;4.97;2.67;;;16.80;99.90;;;;;;5092251;28;20485;-74
2022/06/24 04:00:21;;;;;;;3.33;2.53;;;16.80;99.90;;;;;;5091990;28;20453;-74
2022/06/24 04:02:48;;;;;;;3.27;2.87;;;16.80;99.90;;;;;;5092413;28;20458;-74
2022/06/24 04:05:15;;;;;;;6.40;2.97;;;16.80;99.90;;;;;;5092567;28;20469;-74
2022/06/24 04:07:42;;;;;;;5.13;3.00;;;16.80;99.90;;;;;;5092174;28;20847;-74
2022/06/24 04:10:10;;;;;;;4.97;3.20;;;16.70;99.90;;;;;;5092031;28;21032;-74
2022/06/24 04:12:37;;;;;;;3.33;2.60;;;16.70;99.90;;;;;;5092346;28;20458;-73
2022/06/24 04:15:17;;;;;;;7.60;2.60;;;16.70;99.90;;;;;;5092379;28;20460;-75
2022/06/24 04:17:45;;;;;;;2.90;2.53;;;16.70;99.90;;;;;;5092043;28;20894;-74
2022/06/24 04:20:13;;;;;;;6.13;3.53;;;16.70;99.90;;;;;;5091758;28;20480;-74
2022/06/24 04:22:40;;;;;;;4.43;2.97;;;16.80;99.90;;;;;;5092137;28;20493;-73
2022/06/24 04:25:08;;;;;;;6.77;2.67;;;16.80;99.90;;;;;;5092187;28;20465;-74
2022/06/24 04:27:36;;;;;;;4.00;2.80;;;16.80;99.90;;;;;;5091924;28;20480;-74
2022/06/24 04:30:05;;;;;;;4.30;2.87;;;16.80;99.90;;;;;;5091661;28;20457;-74
2022/06/24 04:32:32;;;;;;;7.37;3.23;;;16.90;99.90;;;;;;5091958;28;20838;-74
2022/06/24 04:34:59;;;;;;;11.07;4.63;;;16.90;99.90;;;;;;5091925;28;20470;-74
2022/06/24 04:37:26;;;;;;;7.23;3.03;;;16.90;99.90;;;;;;5091679;28;20489;-74
2022/06/24 04:39:53;;;;;;;4.27;3.03;;;17.00;99.90;;;;;;5091183;28;20457;-74
2022/06/24 04:42:20;;;;;;;4.90;2.60;;;17.00;99.90;;;;;;5091908;28;20468;-74
2022/06/24 04:44:48;;;;;;;4.60;2.60;;;17.10;99.90;;;;;;5091726;28;20484;-74
2022/06/24 04:47:14;;;;;;;3.40;3.10;;;17.20;99.90;;;;;;5091722;28;20473;-74
2022/06/24 04:49:41;;;;;;;4.87;3.33;;;17.30;99.90;;;;;;5091084;28;20458;-74
2022/06/24 04:52:08;;;;;;;4.70;2.70;;;17.30;99.90;;;;;;5091733;28;20468;-74
2022/06/24 04:54:34;;;;;;;5.90;2.93;;;17.30;99.90;;;;;;5091168;28;20461;-74
2022/06/24 04:57:01;;;;;;;4.10;3.27;;;17.40;99.90;;;;;;5091149;28;20493;-74
2022/06/24 04:59:28;;;;;;;6.60;3.03;;;17.40;99.90;;;;;;5091053;28;20461;-74
2022/06/24 05:01:56;;;;;;;4.80;4.17;;;17.50;99.90;;;;;;5091233;28;20465;-74
2022/06/24 05:04:23;;;;;;;6.63;2.83;;;17.50;99.90;;;;;;5091559;28;20972;-74
2022/06/24 05:06:49;;;;;;;4.00;3.00;;;17.50;99.90;;;;;;5091067;28;20570;-74
2022/06/24 05:09:17;;;;;;;3.80;2.90;;;17.60;99.90;;;;;;5090937;28;20457;-74
2022/06/24 05:11:43;;;;;;;4.43;3.20;;;17.60;99.90;;;;;;5091126;28;20465;-75
2022/06/24 05:14:10;;;;;;;6.77;3.10;;;17.60;99.90;;;;;;5091320;28;20461;-74
2022/06/24 05:16:37;;;;;;;3.13;2.40;;;17.70;99.90;;;;;;5091291;28;20461;-74
2022/06/24 05:19:05;;;;;;;3.87;3.00;;;17.80;99.90;;;;;;5091261;28;20460;-75
2022/06/24 05:21:32;;;;;;;6.97;3.30;;;17.90;99.90;;;;;;5090871;28;20457;-74
2022/06/24 05:23:59;;;;;;;3.33;2.80;;;17.90;99.90;;;;;;5090872;28;20469;-74
2022/06/24 05:26:25;;;;;;;3.33;2.50;;;18.00;99.90;;;;;;5090934;28;20454;-74
2022/06/24 05:28:52;;;;;;;9.60;2.80;;;18.00;99.90;;;;;;5090813;28;20464;-74
2022/06/24 05:31:19;;;;;;;4.40;2.87;;;18.00;99.90;;;;;;5090742;28;20465;-74
2022/06/24 05:33:45;;;;;;;4.33;2.50;;;18.00;99.90;;;;;;5090892;28;20491;-74
2022/06/24 05:36:14;;;;;;;3.63;2.57;;;18.00;99.90;;;;;;5091030;28;20461;-74
2022/06/24 05:38:41;;;;;;;5.57;2.90;;;18.10;99.90;;;;;;5090583;28;20489;-74
2022/06/24 05:41:08;;;;;;;3.47;2.83;;;18.20;99.90;;;;;;5090577;28;20826;-73
2022/06/24 05:43:35;;;;;;;6.83;3.07;;;18.20;99.90;;;;;;5090906;28;20461;-74
2022/06/24 05:46:01;;;;;;;3.93;3.00;;;18.20;99.90;;;;;;5090764;28;20457;-74
2022/06/24 05:48:30;;;;;;;4.43;2.53;;;18.20;99.90;;;;;;5090820;28;20876;-74
2022/06/24 05:50:56;;;;;;;4.80;2.90;;;18.30;99.90;;;;;;5090202;28;20889;-74
2022/06/24 05:56:08;;;;;;;5.50;3.20;;;18.40;99.90;;;;;;5090881;28;20933;-75
2022/06/24 05:58:35;;;;;;;5.57;3.27;;;18.50;99.90;;;;;;5090541;28;20477;-74
2022/06/24 06:01:08;;;;;;;4.23;2.63;;;18.60;99.90;;;;;;5090441;28;20462;-74
2022/06/24 06:03:34;;;;;;;4.57;2.80;;;18.60;99.90;;;;;;5090756;28;20895;-74
2022/06/24 06:06:01;;;;;;;4.97;3.07;;;18.70;99.90;;;;;;5090986;28;20468;-74
2022/06/24 06:08:29;;;;;;;5.43;2.87;;;18.80;99.90;;;;;;5094687;28;20473;-74
2022/06/24 06:10:56;;;;;;;6.13;3.37;;;18.80;99.90;;;;;;5094054;28;20461;-74
2022/06/24 06:13:23;;;;;;;4.73;3.13;;;18.80;99.90;;;;;;5094649;28;20465;-74
2022/06/24 06:15:49;;;;;;;4.80;3.07;;;18.90;99.90;;;;;;5094415;28;20457;-74
2022/06/24 06:18:16;;;;;;;8.63;3.10;;;18.90;99.90;;;;;;5094604;28;21005;-74
2022/06/24 06:20:43;;;;;;;4.60;3.03;;;19.00;99.90;;;;;;5094156;28;20468;-74
2022/06/24 06:23:11;;;;;;;5.73;2.93;;;19.10;99.90;;;;;;5093432;28;20462;-74
2022/06/24 06:25:39;;;;;;;6.27;2.73;;;19.20;99.90;;;;;;5094598;28;20476;-74
2022/06/24 06:28:07;;;;;;;7.83;3.33;;;19.20;99.90;;;;;;5094135;28;20477;-74
2022/06/24 06:30:33;;;;;;;4.63;2.40;;;19.30;99.90;;;;;;5093961;28;20999;-74
2022/06/24 06:33:00;;;;;;;3.63;3.30;;;19.40;99.90;;;;;;5094227;28;20476;-74
2022/06/24 06:35:27;;;;;;;3.03;2.63;;;19.40;99.90;;;;;;5094290;28;20457;-75
2022/06/24 06:37:54;;;;;;;7.93;3.10;;;19.40;99.90;;;;;;5093810;28;20485;-74
2022/06/24 06:40:20;;;;;;;7.87;3.27;;;19.50;99.90;;;;;;5094042;28;20564;-75
2022/06/24 06:42:52;;;;;;;4.57;2.90;;;19.50;99.90;;;;;;5094044;28;20476;-75
2022/06/24 06:45:19;;;;;;;5.87;3.50;;;19.60;99.90;;;;;;5094159;28;20457;-74
2022/06/24 06:47:46;;;;;;;4.90;2.53;;;19.70;99.90;;;;;;5093828;28;20992;-75
2022/06/24 06:50:13;;;;;;;4.90;2.90;;;19.70;99.90;;;;;;5093552;28;20458;-74
2022/06/24 06:52:39;;;;;;;5.73;3.13;;;19.80;99.90;;;;;;5093982;28;20476;-74
2022/06/24 06:55:07;;;;;;;5.90;3.13;;;19.90;99.90;;;;;;5093869;28;20556;-76
2022/06/24 06:57:34;;;;;;;7.10;3.23;;;19.90;99.90;;;;;;5093836;28;20489;-74
2022/06/24 07:00:03;;;;;;;5.50;2.57;;;20.00;99.90;;;;;;5093640;28;20838;-74
2022/06/24 07:02:29;;;;;;;4.70;3.00;;;20.10;99.90;;;;;;5093982;28;20465;-74
2022/06/24 07:04:56;;;;;;;7.33;2.90;;;20.10;99.90;;;;;;5093465;28;20461;-74
2022/06/24 07:07:23;;;;;;;5.13;2.70;;;20.20;99.90;;;;;;5093715;28;20469;-73
2022/06/24 07:09:51;;;;;;;4.33;3.00;;;20.30;99.90;;;;;;5093117;28;20547;-73
2022/06/24 07:12:17;;;;;;;4.17;3.00;;;20.30;99.90;;;;;;5093705;28;20464;-73
2022/06/24 07:14:44;;;;;;;4.70;3.23;;;20.40;99.90;;;;;;5093411;28;20469;-73
2022/06/24 07:17:13;;;;;;;3.33;2.87;;;20.40;99.90;;;;;;5093438;28;20489;-73
2022/06/24 07:19:39;;;;;;;8.97;3.80;;;20.50;99.90;;;;;;5092260;28;20514;-74
2022/06/24 07:22:06;;;;;;;3.27;2.97;;;20.60;99.90;;;;;;5093180;28;21052;-74
2022/06/24 07:24:33;;;;;;;5.57;3.40;;;20.70;99.90;;;;;;5093340;28;20820;-74
2022/06/24 07:27:02;;;;;;;4.03;3.03;;;20.80;99.90;;;;;;5093170;28;20936;-74
2022/06/24 07:29:31;;;;;;;4.40;2.70;;;20.90;99.90;;;;;;5092900;28;20956;-74
2022/06/24 07:31:57;;;;;;;4.70;2.70;;;21.00;99.90;;;;;;5093094;28;20531;-74
2022/06/24 07:34:26;;;;;;;3.80;2.43;;;21.00;99.90;;;;;;5093164;28;20461;-74
2022/06/24 07:36:53;;;;;;;6.50;2.73;;;20.80;99.90;;;;;;5092941;28;20517;-74
2022/06/24 07:39:20;;;;;;;4.87;2.40;;;20.80;99.90;;;;;;5092397;28;20481;-74
2022/06/24 07:41:46;;;;;;;3.77;2.40;;;20.80;99.90;;;;;;5092814;28;20995;-74
2022/06/24 07:44:13;;;;;;;3.90;2.43;;;20.90;99.90;;;;;;5092921;28;20484;-74
2022/06/24 07:46:40;;;;;;;3.67;2.63;;;21.00;99.90;;;;;;5092932;28;20485;-74
2022/06/24 07:49:06;;;;;;;3.27;2.30;;;21.10;99.90;;;;;;5092231;28;20464;-75
2022/06/24 07:51:35;;;;;;;4.17;2.43;;;21.30;99.90;;;;;;5092758;28;20824;-74
2022/06/24 07:54:01;;;;;;;4.87;3.00;;;21.40;99.90;;;;;;5092523;28;20473;-74
2022/06/24 07:59:12;;;;;;;2.80;2.60;;;21.50;99.90;;;;;;5092328;28;20607;-74
2022/06/24 08:01:39;;;;;;;2.20;2.00;;;21.60;99.90;;;;;;5092686;28;20461;-74
2022/06/24 08:04:08;;;;;;;3.20;1.90;;;21.50;99.90;;;;;;5092467;28;20848;-74
2022/06/24 08:06:37;;;;;;;3.60;2.53;;;21.70;99.90;;;;;;5092389;28;20874;-74
2022/06/24 08:09:05;;;;;;;4.20;2.17;;;21.70;99.90;;;;;;5092146;28;20454;-74
2022/06/24 08:11:31;;;;;;;6.17;2.60;;;21.80;99.90;;;;;;5092194;28;20474;-74
2022/06/24 08:13:58;;;;;;;3.77;2.70;;;21.90;99.90;;;;;;5092137;28;20460;-74
2022/06/24 08:16:25;;;;;;;3.10;2.30;;;21.90;99.90;;;;;;5092167;28;20457;-74
2022/06/24 08:18:52;;;;;;;2.40;2.20;;;21.80;99.90;;;;;;5091903;28;20492;-74
2022/06/24 08:21:19;;;;;;;5.83;2.23;;;21.70;99.90;;;;;;5091841;28;20833;-74
2022/06/24 08:23:47;;;;;;;3.50;2.30;;;21.80;99.90;;;;;;5091800;28;20556;-74
2022/06/24 08:26:16;;;;;;;7.90;2.60;;;21.90;99.90;;;;;;5160832;22;20485;-71
2022/06/24 08:28:42;;;;;;;5.10;2.20;;;22.10;99.90;;;;;;5071834;28;20471;-71
2022/06/24 08:31:09;;;;;;;3.17;2.50;;;22.30;99.90;;;;;;5070387;28;20815;-71
2022/06/24 08:33:36;;;;;;;2.80;2.00;;;22.50;99.90;;;;;;5072115;28;20459;-71
2022/06/24 08:36:03;;;;;;;2.80;2.50;;;22.40;99.90;;;;;;5071593;28;20455;-71
2022/06/24 08:38:30;;;;;;;2.77;2.00;;;22.40;99.90;;;;;;5071404;28;21029;-71
2022/06/24 08:41:02;;;;;;;3.90;2.10;;;22.40;99.90;;;;;;5071027;28;20485;-71
2022/06/24 08:43:30;;;;;;;2.27;2.07;;;22.40;99.90;;;;;;5071579;28;20461;-71
2022/06/24 08:45:58;;;;;;;3.07;2.50;;;22.20;99.90;;;;;;5071389;28;20981;-71
2022/06/24 08:48:27;;;;;;;4.17;2.40;;;22.10;99.90;;;;;;5071372;28;20839;-71
2022/06/24 08:50:54;;;;;;;4.33;2.23;;;22.30;99.90;;;;;;5071227;28;20540;-71
2022/06/24 08:53:22;;;;;;;3.73;2.03;;;22.50;99.90;;;;;;5071295;28;20462;-71
2022/06/24 08:55:50;;;;;;;5.50;2.10;;;22.50;99.90;;;;;;5071328;28;20950;-71
2022/06/24 08:58:19;;;;;;;4.43;2.53;;;22.50;99.90;;;;;;5070955;28;20577;-71
2022/06/24 09:00:46;;;;;;;2.37;1.73;;;22.70;99.90;;;;;;5070718;28;20458;-71
2022/06/24 09:03:13;;;;;;;2.43;2.10;;;23.00;99.90;;;;;;5071135;28;20469;-72
2022/06/24 09:05:40;;;;;;;3.77;2.57;;;23.30;99.90;;;;;;5071316;28;20459;-71
2022/06/24 09:08:09;;;;;;;2.43;1.80;;;23.60;99.90;;;;;;5071035;28;20899;-71
2022/06/24 09:10:38;;;;;;;2.60;2.40;;;23.80;99.90;;;;;;5070804;28;20478;-72
2022/06/24 09:13:05;;;;;;;2.60;1.90;;;23.80;99.90;;;;;;5071043;28;20458;-71
2022/06/24 09:15:34;;;;;;;3.80;2.37;;;23.70;99.90;;;;;;5071089;28;20462;-71
2022/06/24 09:18:01;;;;;;;4.60;2.03;;;23.70;99.90;;;;;;5070739;28;20493;-71
2022/06/24 09:20:29;;;;;;;4.30;2.33;;;23.70;99.90;;;;;;5070760;28;20467;-71
2022/06/24 09:23:03;;;;;;;3.20;2.70;;;23.60;99.90;;;;;;5070915;28;20468;-71
2022/06/24 09:25:42;;;;;;;4.50;2.40;;;23.40;99.90;;;;;;5071146;28;20473;-71
2022/06/24 09:28:08;;;;;;;4.53;2.60;;;23.20;99.90;;;;;;5070893;28;20474;-71
2022/06/24 09:30:37;;;;;;;4.83;2.23;;;23.00;99.90;;;;;;5070599;28;20458;-71
2022/06/24 09:33:04;;;;;;;3.00;2.30;;;23.00;99.90;;;;;;5070804;28;20466;-71
2022/06/24 09:35:35;;;;;;;3.10;2.40;;;23.30;99.90;;;;;;5071028;28;20466;-71
2022/06/24 09:38:02;;;;;;;3.43;2.30;;;23.60;99.90;;;;;;5070624;28;20490;-72
2022/06/24 09:40:31;;;;;;;2.63;2.13;;;23.90;99.90;;;;;;5070481;28;20486;-71
2022/06/24 09:43:01;;;;;;;3.83;2.33;;;24.20;99.90;;;;;;5070426;28;20469;-71
2022/06/24 09:45:43;;;;;;;2.63;2.00;;;24.40;99.90;;;;;;5070781;28;20458;-71
2022/06/24 09:48:12;;;;;;;3.00;2.03;;;24.70;99.90;;;;;;5070860;28;20502;-72
2022/06/24 09:50:39;;;;;;;4.30;2.27;;;24.80;99.90;;;;;;5070271;28;20497;-71
2022/06/24 09:53:08;;;;;;;2.97;2.10;;;25.10;99.90;;;;;;5070664;28;20469;-71
2022/06/24 09:55:35;;;;;;;3.00;1.93;;;25.10;99.90;;;;;;5070684;28;20462;-71
2022/06/24 09:58:04;;;;;;;3.30;1.90;;;24.80;99.90;;;;;;5070240;28;20513;-72
2022/06/24 10:00:43;;;;;;;2.80;2.60;;;24.70;99.90;;;;;;5070236;28;20498;-72
2022/06/24 10:03:13;;;;;;;4.13;1.93;;;24.80;99.90;;;;;;5070694;28;20466;-71
2022/06/24 10:05:42;;;;;;;2.60;1.80;;;25.10;99.90;;;;;;5070920;28;20462;-72
2022/06/24 10:08:12;;;;;;;4.53;1.97;;;25.30;99.90;;;;;;5070431;28;20474;-71
2022/06/24 10:10:45;;;;;;;3.40;2.07;;;25.30;99.90;;;;;;5070158;28;20465;-71
2022/06/24 10:13:22;;;;;;;2.33;2.07;;;24.90;99.90;;;;;;5070376;28;20473;-71
2022/06/24 10:15:49;;;;;;;3.37;2.23;;;24.60;99.90;;;;;;5070437;28;20458;-71
2022/06/24 10:18:19;;;;;;;2.30;1.80;;;24.60;99.90;;;;;;5070023;28;21009;-71
2022/06/24 10:20:47;;;;;;;4.30;2.00;;;24.90;99.90;;;;;;5070094;28;20513;-71
2022/06/24 10:23:45;;;;;;;2.63;1.80;;;25.10;99.90;;;;;;5070328;28;20844;-71
2022/06/24 10:26:17;;;;;;;5.00;2.00;;;25.30;99.90;;;;;;5027899;28;20464;-71
2022/06/24 10:29:17;;;;;;;2.00;1.80;;;25.30;99.90;;;;;;5062382;28;20512;-72
2022/06/24 10:32:01;;;;;;;4.47;2.30;;;25.60;99.90;;;;;;5070347;28;20458;-71
2022/06/24 10:34:36;;;;;;;2.80;1.70;;;25.60;99.90;;;;;;5070437;28;20454;-71
2022/06/24 10:37:06;;;;;;;3.60;2.10;;;25.40;99.90;;;;;;5070089;28;20478;-71
2022/06/24 10:39:35;;;;;;;3.60;2.00;;;25.30;99.90;;;;;;5069932;28;20489;-71
2022/06/24 10:42:03;;;;;;;4.37;2.27;;;25.50;99.90;;;;;;5070324;28;20455;-71
2022/06/24 10:44:31;;;;;;;3.67;2.40;;;25.60;99.90;;;;;;5070108;28;20461;-71
2022/06/24 10:47:28;;;;;;;4.07;2.50;;;25.60;99.90;;;;;;5069985;28;21001;-71
2022/06/24 10:50:18;;;;;;;2.67;2.10;;;25.50;99.90;;;;;;5069640;28;20516;-71
2022/06/24 10:53:02;;;;;;;1.93;1.80;;;25.40;99.90;;;;;;5070395;28;20461;-71
2022/06/24 10:55:47;;;;;;;2.30;2.07;;;25.30;99.90;;;;;;5073837;28;20457;-71
2022/06/24 10:58:17;;;;;;;5.00;2.73;;;25.00;99.90;;;;;;5073197;28;20482;-71
2022/06/24 11:00:51;;;;;;;2.50;2.13;;;24.70;99.90;;;;;;5073160;28;20466;-71
2022/06/24 11:03:31;;;;;;;2.50;1.90;;;24.50;99.90;;;;;;5073626;28;20465;-71
2022/06/24 11:06:00;;;;;;;2.63;2.07;;;24.40;99.90;;;;;;5073677;28;20829;-71
2022/06/24 11:08:28;;;;;;;6.50;1.87;;;24.40;99.90;;;;;;5073314;28;21012;-71
2022/06/24 11:10:55;;;;;;;2.40;1.77;;;24.30;99.90;;;;;;5072907;28;20881;-71
2022/06/24 11:13:23;;;;;;;3.30;2.23;;;24.40;99.90;;;;;;5073409;28;20466;-71
2022/06/24 11:15:52;;;;;;;3.37;1.80;;;24.50;99.90;;;;;;5073420;28;20831;-71
2022/06/24 11:18:20;;;;;;;1.83;1.63;;;24.90;99.90;;;;;;5072933;28;20490;-71
2022/06/24 11:20:49;;;;;;;4.93;2.10;;;25.20;99.90;;;;;;5072806;28;20462;-71
2022/06/24 11:23:19;;;;;;;3.20;2.40;;;25.30;99.90;;;;;;5073042;28;20466;-71
2022/06/24 11:25:47;;;;;;;3.27;2.53;;;25.30;99.90;;;;;;5073023;28;20470;-71
2022/06/24 11:28:21;;;;;;;3.97;2.60;;;25.40;99.90;;;;;;5072831;28;20861;-71
2022/06/24 11:30:50;;;;;;;5.00;2.70;;;25.40;99.90;;;;;;5072778;28;20458;-71
2022/06/24 11:33:17;;;;;;;3.73;2.57;;;25.20;99.90;;;;;;5073140;28;20866;-72
2022/06/24 11:35:46;;;;;;;3.80;2.83;;;25.00;99.90;;;;;;5073209;28;20465;-71
2022/06/24 11:38:13;;;;;;;2.90;2.37;;;24.80;99.90;;;;;;5072787;28;20485;-71
2022/06/24 11:40:42;;;;;;;4.33;2.60;;;24.70;99.90;;;;;;5072543;28;20879;-71
2022/06/24 11:43:11;;;;;;;3.40;2.60;;;24.60;99.90;;;;;;5073005;28;20465;-71
2022/06/24 11:45:40;;;;;;;3.57;2.63;;;24.40;99.90;;;;;;5073192;28;20462;-71
2022/06/24 11:48:08;;;;;;;3.13;2.67;;;24.30;99.90;;;;;;5072820;28;21004;-72
2022/06/24 11:50:35;;;;;;;7.03;2.80;;;24.30;99.90;;;;;;5072661;28;20458;-71
2022/06/24 11:53:04;;;;;;;4.03;2.80;;;24.30;99.90;;;;;;5072631;28;20485;-71
2022/06/24 11:55:32;;;;;;;5.17;3.07;;;24.30;99.90;;;;;;5072840;28;20790;-72
2022/06/24 11:58:02;;;;;;;4.90;3.00;;;24.30;99.90;;;;;;5072669;28;21118;-72
2022/06/24 12:00:32;;;;;;;2.50;2.30;;;24.20;99.90;;;;;;5072193;28;20900;-71
2022/06/24 12:02:59;;;;;;;3.17;2.60;;;24.20;99.90;;;;;;5072493;28;20462;-72
2022/06/24 12:05:29;;;;;;;3.73;2.40;;;24.30;99.90;;;;;;5072241;28;20462;-72
2022/06/24 12:07:57;;;;;;;3.20;2.40;;;24.60;99.90;;;;;;5072101;28;20514;-72
2022/06/24 12:10:24;;;;;;;3.10;2.30;;;24.70;99.90;;;;;;5071868;28;20462;-72
2022/06/24 12:13:00;;;;;;;5.53;2.17;;;24.70;99.90;;;;;;5072332;28;20469;-71
2022/06/24 12:15:33;;;;;;;5.23;2.30;;;24.80;99.90;;;;;;5072422;28;20592;-72
2022/06/24 12:18:00;;;;;;;3.10;2.30;;;24.80;99.90;;;;;;5072006;28;20514;-72
2022/06/24 12:20:28;;;;;;;2.30;2.10;;;24.80;99.90;;;;;;5071641;28;20482;-72
2022/06/24 12:23:15;;;;;;;3.40;2.30;;;24.90;99.90;;;;;;5071788;28;20466;-71
2022/06/24 12:25:43;;;;;;;2.90;2.20;;;24.90;99.90;;;;;;5071715;28;20465;-71
2022/06/24 12:28:17;;;;;;;3.77;1.93;;;24.80;99.90;;;;;;5071919;28;20482;-71
2022/06/24 12:30:58;;;;;;;2.73;2.07;;;24.70;99.90;;;;;;5071469;28;20455;-71
2022/06/24 12:33:25;;;;;;;2.30;2.10;;;24.60;99.90;;;;;;5071801;28;20462;-72
2022/06/24 12:36:08;;;;;;;3.57;2.33;;;24.50;99.90;;;;;;5071780;28;20463;-71
2022/06/24 12:38:36;;;;;;;2.50;2.30;;;24.30;99.90;;;;;;5071428;28;20486;-72
2022/06/24 12:41:10;;;;;;;2.33;2.10;;;24.10;99.90;;;;;;5071539;28;20482;-71
2022/06/24 12:43:51;;;;;;;2.40;2.20;;;23.80;99.90;;;;;;5071612;28;20983;-71
2022/06/24 12:46:19;;;;;;;6.07;2.43;;;23.50;99.90;;;;;;5071752;28;20458;-72
2022/06/24 12:51:30;;;;;;;3.83;2.33;;;23.10;99.90;;;;;;5071198;28;20518;-72
2022/06/24 12:53:58;;;;;;;2.63;2.23;;;22.90;99.90;;;;;;5071667;28;20485;-72
2022/06/24 12:56:25;;;;;;;5.13;2.70;;;22.70;99.90;;;;;;5071332;28;20462;-71
2022/06/24 12:58:54;;;;;;;3.20;2.70;;;22.40;99.90;;;;;;5071209;28;20470;-71
2022/06/24 13:01:21;;;;;;;4.80;2.43;;;22.30;99.90;;;;;;5070902;28;20462;-71
2022/06/24 13:03:47;;;;;;;3.90;2.70;;;22.10;99.90;;;;;;5071131;28;20481;-72
2022/06/24 13:06:14;;;;;;;5.03;3.60;;;22.00;99.90;;;;;;5071169;28;20462;-71